Terminal Aerodrome Forecast
Issued by NWS

Home | Current Version | Previous Version | Text Only | Print | Product List | Glossary On
Versions: 1 2 3 4 5 6 7 8 9 10 11 12 13 14 15 16 17 18 19 20 21 22 23 24
000
FTUS45 KPSR 252300
TAFPHX
TAF
KPHX 252320Z 2600/2624 VRB04KT P6SM SCT180 BKN250
     FM260800 09004KT P6SM FEW120 SCT180 BKN250
     FM261300 13006KT P6SM SCT100 BKN150 OVC200
     FM262200 25004KT P6SM VCSH SCT080 BKN100 OVC150=

USA.gov is the U.S. government's official web portal to all federal, state and local government web resources and services.